createdAt,value
2017-05-29T00:00:39.771Z,0
2017-05-29T00:01:39.522Z,0
2017-05-29T00:02:38.822Z,0
2017-05-29T00:03:39.129Z,0
2017-05-29T00:04:39.148Z,0
2017-05-29T00:05:40.010Z,0
2017-05-29T00:06:39.767Z,0
2017-05-29T00:07:39.437Z,0
2017-05-29T00:08:39.650Z,0
2017-05-29T00:09:39.143Z,0
2017-05-29T00:10:38.789Z,0
2017-05-29T00:11:38.804Z,0
2017-05-29T00:12:39.122Z,0
2017-05-29T00:13:40.531Z,0
2017-05-29T00:14:39.577Z,0
2017-05-29T00:15:39.463Z,0
2017-05-29T00:16:39.434Z,0
2017-05-29T00:17:39.577Z,0
2017-05-29T00:18:39.116Z,0
2017-05-29T00:19:39.102Z,0
2017-05-29T00:20:40.293Z,0
2017-05-29T00:21:39.763Z,0
2017-05-29T00:22:38.452Z,0
2017-05-29T00:23:40.462Z,0
2017-05-29T00:24:38.752Z,0
2017-05-29T00:25:39.410Z,0
2017-05-29T00:26:39.077Z,0
2017-05-29T00:27:38.436Z,0
2017-05-29T00:28:39.840Z,0
2017-05-29T00:29:40.301Z,0
2017-05-29T00:30:40.972Z,0
2017-05-29T00:31:39.576Z,0
2017-05-29T00:32:38.754Z,0
2017-05-29T00:33:39.073Z,0
2017-05-29T00:34:39.094Z,0
2017-05-29T00:35:38.765Z,0
2017-05-29T00:36:40.054Z,0
2017-05-29T00:37:39.074Z,0
2017-05-29T00:38:40.544Z,0
2017-05-29T00:39:39.095Z,0
2017-05-29T00:40:39.355Z,0
2017-05-29T00:41:38.391Z,0
2017-05-29T00:42:38.792Z,0
2017-05-29T00:43:39.653Z,0
2017-05-29T00:44:40.840Z,0
2017-05-29T00:45:39.135Z,0
2017-05-29T00:46:38.697Z,0
2017-05-29T00:47:38.736Z,0
2017-05-29T00:48:38.699Z,0
2017-05-29T00:49:39.033Z,0
2017-05-29T00:50:38.948Z,0
2017-05-29T00:51:39.744Z,0
2017-05-29T00:52:38.973Z,0
2017-05-29T00:53:39.023Z,0
2017-05-29T00:54:38.691Z,0
2017-05-29T00:55:38.358Z,0
2017-05-29T00:56:40.337Z,0
2017-05-29T00:57:40.581Z,0
2017-05-29T00:58:39.101Z,0
2017-05-29T00:59:38.985Z,0
2017-05-29T01:00:38.975Z,0
2017-05-29T01:01:38.646Z,0
2017-05-29T01:02:38.646Z,0
2017-05-29T01:03:38.647Z,0
2017-05-29T01:04:39.004Z,0
2017-05-29T01:05:39.316Z,0
2017-05-29T01:06:38.643Z,0
2017-05-29T01:07:39.562Z,0
2017-05-29T01:08:39.862Z,0
2017-05-29T01:09:38.623Z,0
2017-05-29T01:10:38.971Z,0
2017-05-29T01:11:39.347Z,0
2017-05-29T01:12:38.618Z,0
2017-05-29T01:13:40.889Z,0
2017-05-29T01:14:38.964Z,0
2017-05-29T01:15:38.927Z,0
2017-05-29T01:16:38.600Z,0
2017-05-29T01:17:38.597Z,0
2017-05-29T01:18:39.516Z,0
2017-05-29T01:19:38.930Z,0
2017-05-29T01:20:38.912Z,0
2017-05-29T01:21:38.624Z,0
2017-05-29T01:22:40.196Z,0
2017-05-29T01:23:38.596Z,0
2017-05-29T01:24:38.593Z,0
2017-05-29T01:25:38.907Z,0
2017-05-29T01:26:39.275Z,0
2017-05-29T01:27:38.892Z,0
2017-05-29T01:28:38.562Z,0
2017-05-29T01:29:39.286Z,0
2017-05-29T01:30:39.438Z,0
2017-05-29T01:31:38.563Z,0
2017-05-29T01:32:40.805Z,0
2017-05-29T01:33:39.470Z,0
2017-05-29T01:34:39.209Z,0
2017-05-29T01:35:39.199Z,0
2017-05-29T01:36:38.879Z,0
2017-05-29T01:37:38.886Z,0
2017-05-29T01:38:38.260Z,0
2017-05-29T01:39:38.880Z,0
2017-05-29T01:40:39.371Z,0
2017-05-29T01:41:39.288Z,0
2017-05-29T01:42:39.031Z,0
2017-05-29T01:43:38.843Z,0
2017-05-29T01:44:39.164Z,0
2017-05-29T01:45:38.845Z,0
2017-05-29T01:46:39.969Z,0
2017-05-29T01:47:38.183Z,0
2017-05-29T01:48:38.835Z,0
2017-05-29T01:49:39.900Z,0
2017-05-29T01:50:40.455Z,0
2017-05-29T01:51:39.374Z,0
2017-05-29T01:52:38.183Z,0
2017-05-29T01:53:38.510Z,0
2017-05-29T01:54:38.173Z,0
2017-05-29T01:55:38.791Z,0
2017-05-29T01:56:40.382Z,0
2017-05-29T01:57:39.898Z,0
2017-05-29T01:58:38.593Z,0
2017-05-29T01:59:39.138Z,0
2017-05-29T02:00:38.803Z,0
2017-05-29T02:01:38.464Z,0
2017-05-29T02:02:38.775Z,0
2017-05-29T02:03:39.191Z,0
2017-05-29T02:04:40.635Z,0
2017-05-29T02:05:39.683Z,0
2017-05-29T02:06:38.771Z,0
2017-05-29T02:07:38.770Z,0
2017-05-29T02:08:38.462Z,0
2017-05-29T02:09:38.992Z,0
2017-05-29T02:10:38.097Z,0
2017-05-29T02:11:39.258Z,0
2017-05-29T02:12:39.661Z,0
2017-05-29T02:13:39.118Z,0
2017-05-29T02:14:38.405Z,0
2017-05-29T02:15:39.495Z,0
2017-05-29T02:16:38.716Z,0
2017-05-29T02:17:39.428Z,0
2017-05-29T02:18:38.766Z,0
2017-05-29T02:19:38.708Z,0
2017-05-29T02:20:38.718Z,0
2017-05-29T02:21:39.850Z,0
2017-05-29T02:22:39.519Z,0
2017-05-29T02:23:38.736Z,0
2017-05-29T02:24:38.062Z,0
2017-05-29T02:25:38.391Z,0
2017-05-29T02:26:38.694Z,0
2017-05-29T02:27:38.038Z,0
2017-05-29T02:28:39.143Z,0
2017-05-29T02:29:39.881Z,0
2017-05-29T02:30:39.355Z,0
2017-05-29T02:31:39.289Z,0
2017-05-29T02:32:38.794Z,0
2017-05-29T02:33:38.671Z,0
2017-05-29T02:34:38.669Z,0
2017-05-29T02:35:38.687Z,0
2017-05-29T02:36:38.611Z,0
2017-05-29T02:37:39.313Z,0
2017-05-29T02:38:39.265Z,0
2017-05-29T02:39:38.992Z,0
2017-05-29T02:40:38.329Z,0
2017-05-29T02:41:39.556Z,0
2017-05-29T02:42:39.285Z,0
2017-05-29T02:43:38.630Z,0
2017-05-29T02:44:38.643Z,0
2017-05-29T02:45:38.325Z,0
2017-05-29T02:46:38.623Z,0
2017-05-29T02:47:38.958Z,0
2017-05-29T02:48:38.919Z,0
2017-05-29T02:49:38.323Z,0
2017-05-29T02:50:38.603Z,0
2017-05-29T02:51:38.914Z,0
2017-05-29T02:52:38.262Z,0
2017-05-29T02:53:38.615Z,0
2017-05-29T02:54:38.905Z,0
2017-05-29T02:55:37.926Z,0
2017-05-29T02:56:38.891Z,0
2017-05-29T02:57:38.889Z,0
2017-05-29T02:58:38.242Z,0
2017-05-29T02:59:37.921Z,0
2017-05-29T03:00:38.235Z,5
2017-05-29T03:01:38.883Z,5
2017-05-29T03:02:38.580Z,5
2017-05-29T03:03:37.905Z,5
2017-05-29T03:04:38.537Z,5
2017-05-29T03:05:38.873Z,5
2017-05-29T03:06:38.865Z,5
2017-05-29T03:07:38.523Z,5
2017-05-29T03:08:38.225Z,5
2017-05-29T03:09:38.880Z,10
2017-05-29T03:10:38.218Z,10
2017-05-29T03:11:38.509Z,10
2017-05-29T03:12:38.828Z,10
2017-05-29T03:13:38.546Z,10
2017-05-29T03:14:38.175Z,10
2017-05-29T03:15:38.167Z,15
2017-05-29T03:16:38.175Z,15
2017-05-29T03:17:38.183Z,15
2017-05-29T03:18:38.161Z,15
2017-05-29T03:19:38.536Z,15
2017-05-29T03:20:38.168Z,20
2017-05-29T03:21:38.468Z,20
2017-05-29T03:22:38.802Z,20
2017-05-29T03:23:38.495Z,20
2017-05-29T03:24:38.791Z,20
2017-05-29T03:25:37.809Z,25
2017-05-29T03:26:37.806Z,25
2017-05-29T03:27:38.444Z,25
2017-05-29T03:28:38.117Z,30
2017-05-29T03:29:38.779Z,30
2017-05-29T03:30:38.758Z,30
2017-05-29T03:31:38.761Z,30
2017-05-29T03:32:38.430Z,35
2017-05-29T03:33:38.855Z,35
2017-05-29T03:34:38.418Z,35
2017-05-29T03:35:38.434Z,40
2017-05-29T03:36:38.747Z,40
2017-05-29T03:37:37.456Z,40
2017-05-29T03:38:38.442Z,45
2017-05-29T03:39:38.408Z,45
2017-05-29T03:40:38.072Z,45
2017-05-29T03:41:38.399Z,50
2017-05-29T03:42:38.715Z,50
2017-05-29T03:43:38.414Z,50
2017-05-29T03:44:38.734Z,55
2017-05-29T03:45:38.051Z,55
2017-05-29T03:46:38.713Z,55
2017-05-29T03:47:38.073Z,60
2017-05-29T03:48:37.733Z,60
2017-05-29T03:49:38.421Z,60
2017-05-29T03:50:38.714Z,65
2017-05-29T03:51:38.694Z,65
2017-05-29T03:52:38.361Z,65
2017-05-29T03:53:38.710Z,65
2017-05-29T03:54:38.022Z,70
2017-05-29T03:55:37.689Z,70
2017-05-29T03:56:38.039Z,75
2017-05-29T03:57:38.333Z,75
2017-05-29T03:58:38.329Z,80
2017-05-29T03:59:38.657Z,80
2017-05-29T04:00:38.340Z,85
2017-05-29T04:01:37.666Z,85
2017-05-29T04:02:38.328Z,85
2017-05-29T04:03:38.659Z,90
2017-05-29T04:04:38.338Z,90
2017-05-29T04:05:38.313Z,90
2017-05-29T04:06:38.335Z,90
2017-05-29T04:07:37.355Z,95
2017-05-29T04:08:38.297Z,95
2017-05-29T04:09:38.626Z,95
2017-05-29T04:10:38.295Z,95
2017-05-29T04:11:37.972Z,95
2017-05-29T04:12:37.970Z,100
2017-05-29T04:13:38.618Z,100
2017-05-29T04:14:38.592Z,100
2017-05-29T04:15:37.950Z,100
2017-05-29T04:16:37.942Z,100
2017-05-29T04:17:38.580Z,100
2017-05-29T04:18:38.290Z,100
2017-05-29T04:19:38.575Z,100
2017-05-29T04:20:38.250Z,100
2017-05-29T04:21:37.940Z,100
2017-05-29T04:22:37.922Z,100
2017-05-29T04:23:37.946Z,100
2017-05-29T04:24:37.917Z,100
2017-05-29T04:25:37.928Z,105
2017-05-29T04:26:38.255Z,105
2017-05-29T04:27:38.227Z,105
2017-05-29T04:28:38.583Z,110
2017-05-29T04:29:38.238Z,110
2017-05-29T04:30:38.248Z,110
2017-05-29T04:31:37.903Z,110
2017-05-29T04:32:37.906Z,110
2017-05-29T04:33:38.557Z,115
2017-05-29T04:34:38.213Z,115
2017-05-29T04:35:38.535Z,115
2017-05-29T04:36:38.218Z,115
2017-05-29T04:37:37.880Z,115
2017-05-29T04:38:38.520Z,120
2017-05-29T04:39:37.875Z,120
2017-05-29T04:40:37.937Z,125
2017-05-29T04:41:38.190Z,125
2017-05-29T04:42:38.182Z,125
2017-05-29T04:43:38.190Z,125
2017-05-29T04:44:38.188Z,130
2017-05-29T04:45:37.871Z,125
2017-05-29T04:46:37.210Z,125
2017-05-29T04:47:37.946Z,130
2017-05-29T04:48:37.855Z,130
2017-05-29T04:49:38.191Z,130
2017-05-29T04:50:38.163Z,135
2017-05-29T04:51:38.181Z,135
2017-05-29T04:52:38.156Z,140
2017-05-29T04:53:37.833Z,140
2017-05-29T04:54:37.854Z,145
2017-05-29T04:55:38.153Z,145
2017-05-29T04:56:38.507Z,145
2017-05-29T04:57:37.830Z,150
2017-05-29T04:58:38.176Z,150
2017-05-29T04:59:38.165Z,150
2017-05-29T05:00:37.821Z,155
2017-05-29T05:01:38.179Z,155
2017-05-29T05:02:38.462Z,155
2017-05-29T05:03:38.477Z,155
2017-05-29T05:04:38.144Z,160
2017-05-29T05:05:38.130Z,160
2017-05-29T05:06:38.139Z,160
2017-05-29T05:07:37.499Z,165
2017-05-29T05:08:38.444Z,170
2017-05-29T05:09:37.815Z,170
2017-05-29T05:10:37.821Z,165
2017-05-29T05:11:38.113Z,165
2017-05-29T05:12:38.119Z,165
2017-05-29T05:13:37.477Z,170
2017-05-29T05:14:38.111Z,165
2017-05-29T05:15:37.816Z,165
2017-05-29T05:16:37.792Z,165
2017-05-29T05:17:37.786Z,165
2017-05-29T05:18:38.118Z,165
2017-05-29T05:19:38.113Z,165
2017-05-29T05:20:37.516Z,165
2017-05-29T05:21:37.788Z,165
2017-05-29T05:22:38.413Z,165
2017-05-29T05:23:38.107Z,165
2017-05-29T05:24:37.771Z,170
2017-05-29T05:25:37.769Z,170
2017-05-29T05:26:37.785Z,175
2017-05-29T05:27:38.292Z,175
2017-05-29T05:28:37.491Z,175
2017-05-29T05:29:38.430Z,175
2017-05-29T05:30:37.775Z,175
2017-05-29T05:31:38.411Z,175
2017-05-29T05:32:37.440Z,175
2017-05-29T05:33:38.411Z,175
2017-05-29T05:34:38.089Z,180
2017-05-29T05:35:37.777Z,180
2017-05-29T05:36:37.434Z,180
2017-05-29T05:37:38.104Z,180
2017-05-29T05:38:37.758Z,180
2017-05-29T05:39:38.115Z,180
2017-05-29T05:40:37.842Z,185
2017-05-29T05:41:37.753Z,190
2017-05-29T05:42:38.398Z,190
2017-05-29T05:43:38.118Z,195
2017-05-29T05:44:37.749Z,200
2017-05-29T05:45:38.405Z,210
2017-05-29T05:46:37.768Z,215
2017-05-29T05:47:37.791Z,220
2017-05-29T05:48:38.429Z,230
2017-05-29T05:49:38.417Z,225
2017-05-29T05:50:37.751Z,220
2017-05-29T05:51:38.088Z,210
2017-05-29T05:52:38.678Z,205
2017-05-29T05:53:37.756Z,200
2017-05-29T05:54:37.753Z,200
2017-05-29T05:55:38.069Z,205
2017-05-29T05:56:38.066Z,205
2017-05-29T05:57:37.750Z,205
2017-05-29T05:58:38.421Z,205
2017-05-29T05:59:38.102Z,205
2017-05-29T06:00:38.088Z,205
2017-05-29T06:01:37.751Z,205
2017-05-29T06:02:38.077Z,210
2017-05-29T06:03:38.126Z,210
2017-05-29T06:04:37.430Z,215
2017-05-29T06:05:37.429Z,215
2017-05-29T06:06:38.073Z,220
2017-05-29T06:07:37.775Z,220
2017-05-29T06:08:37.754Z,220
2017-05-29T06:09:38.423Z,220
2017-05-29T06:10:38.409Z,220
2017-05-29T06:11:38.413Z,215
2017-05-29T06:12:37.771Z,215
2017-05-29T06:13:38.100Z,215
2017-05-29T06:14:37.452Z,215
2017-05-29T06:15:38.082Z,220
2017-05-29T06:16:37.776Z,220
2017-05-29T06:17:38.083Z,220
2017-05-29T06:18:38.115Z,220
2017-05-29T06:19:38.105Z,220
2017-05-29T06:20:38.431Z,220
2017-05-29T06:21:37.454Z,225
2017-05-29T06:22:38.443Z,225
2017-05-29T06:23:38.113Z,230
2017-05-29T06:24:38.083Z,230
2017-05-29T06:25:38.090Z,230
2017-05-29T06:26:38.121Z,235
2017-05-29T06:27:38.093Z,240
2017-05-29T06:28:38.141Z,245
2017-05-29T06:29:38.131Z,245
2017-05-29T06:30:38.092Z,245
2017-05-29T06:31:37.469Z,255
2017-05-29T06:32:37.453Z,270
2017-05-29T06:33:37.816Z,280
2017-05-29T06:34:38.125Z,285
2017-05-29T06:35:38.451Z,295
2017-05-29T06:36:37.781Z,320
2017-05-29T06:37:38.151Z,355
2017-05-29T06:38:38.134Z,380
2017-05-29T06:39:37.801Z,395
2017-05-29T06:40:38.115Z,395
2017-05-29T06:41:38.121Z,430
2017-05-29T06:42:37.820Z,425
2017-05-29T06:43:37.800Z,445
2017-05-29T06:44:38.125Z,460
2017-05-29T06:45:38.119Z,465
2017-05-29T06:46:38.472Z,485
2017-05-29T06:47:37.490Z,485
2017-05-29T06:48:38.508Z,510
2017-05-29T06:49:38.158Z,555
2017-05-29T06:50:38.143Z,530
2017-05-29T06:51:38.144Z,540
2017-05-29T06:52:38.202Z,550
2017-05-29T06:53:37.505Z,545
2017-05-29T06:54:38.189Z,545
2017-05-29T06:55:38.476Z,550
2017-05-29T06:56:37.838Z,550
2017-05-29T06:57:38.188Z,615
2017-05-29T06:58:38.500Z,655
2017-05-29T06:59:37.855Z,610
2017-05-29T07:00:37.881Z,645
2017-05-29T07:01:37.889Z,670
2017-05-29T07:02:37.889Z,700
2017-05-29T07:03:37.890Z,640
2017-05-29T07:04:37.915Z,650
2017-05-29T07:05:38.219Z,635
2017-05-29T07:06:38.251Z,635
2017-05-29T07:07:38.236Z,620
2017-05-29T07:08:38.562Z,625
2017-05-29T07:09:37.599Z,610
2017-05-29T07:10:38.451Z,590
2017-05-29T07:11:38.591Z,595
2017-05-29T07:12:38.275Z,585
2017-05-29T07:13:38.306Z,560
2017-05-29T07:14:37.960Z,570
2017-05-29T07:15:38.636Z,550
2017-05-29T07:16:38.321Z,520
2017-05-29T07:17:37.983Z,535
2017-05-29T07:18:37.996Z,550
2017-05-29T07:19:38.035Z,585
2017-05-29T07:20:38.345Z,610
2017-05-29T07:21:37.737Z,570
2017-05-29T07:22:38.781Z,585
2017-05-29T07:23:38.699Z,610
2017-05-29T07:24:38.385Z,625
2017-05-29T07:25:37.780Z,615
2017-05-29T07:26:38.392Z,550
2017-05-29T07:27:38.085Z,570
2017-05-29T07:28:38.099Z,560
2017-05-29T07:29:38.767Z,585
2017-05-29T07:30:38.438Z,630
2017-05-29T07:31:38.129Z,660
2017-05-29T07:32:38.149Z,645
2017-05-29T07:33:38.796Z,645
2017-05-29T07:34:37.832Z,675
2017-05-29T07:35:38.808Z,675
2017-05-29T07:36:38.518Z,615
2017-05-29T07:37:38.513Z,590
2017-05-29T07:38:38.852Z,520
2017-05-29T07:39:38.629Z,555
2017-05-29T07:40:38.711Z,550
2017-05-29T07:41:38.556Z,590
2017-05-29T07:42:38.888Z,600
2017-05-29T07:43:38.899Z,605
2017-05-29T07:44:38.596Z,540
2017-05-29T07:45:38.587Z,520
2017-05-29T07:46:38.292Z,515
2017-05-29T07:47:38.306Z,515
2017-05-29T07:48:38.327Z,510
2017-05-29T07:49:38.633Z,505
2017-05-29T07:50:38.645Z,490
2017-05-29T07:51:38.653Z,490
2017-05-29T07:52:38.675Z,495
2017-05-29T07:53:38.699Z,490
2017-05-29T07:54:39.038Z,470
2017-05-29T07:55:38.692Z,455
2017-05-29T07:56:38.406Z,440
2017-05-29T07:57:38.759Z,410
2017-05-29T07:58:38.745Z,390
2017-05-29T07:59:38.727Z,375
2017-05-29T08:00:38.752Z,370
2017-05-29T08:01:38.781Z,345
2017-05-29T08:02:39.104Z,330
2017-05-29T08:03:38.785Z,320
2017-05-29T08:04:38.465Z,315
2017-05-29T08:05:38.802Z,325
2017-05-29T08:06:38.490Z,325
2017-05-29T08:07:38.801Z,340
2017-05-29T08:08:38.818Z,345
2017-05-29T08:09:38.492Z,345
2017-05-29T08:10:39.147Z,350
2017-05-29T08:11:38.835Z,360
2017-05-29T08:12:38.884Z,365
2017-05-29T08:13:38.872Z,380
2017-05-29T08:14:38.878Z,390
2017-05-29T08:15:38.550Z,410
2017-05-29T08:16:39.250Z,435
2017-05-29T08:17:38.970Z,455
2017-05-29T08:18:38.910Z,490
2017-05-29T08:19:38.251Z,525
2017-05-29T08:20:38.903Z,565
2017-05-29T08:21:39.229Z,600
2017-05-29T08:22:38.275Z,640
2017-05-29T08:23:38.628Z,665
2017-05-29T08:24:38.939Z,675
2017-05-29T08:25:38.950Z,665
2017-05-29T08:26:38.310Z,635
2017-05-29T08:27:38.319Z,610
2017-05-29T08:28:38.671Z,590
2017-05-29T08:29:38.980Z,580
2017-05-29T08:30:38.984Z,590
2017-05-29T08:31:39.311Z,540
2017-05-29T08:32:38.690Z,525
2017-05-29T08:33:38.697Z,505
2017-05-29T08:34:39.012Z,495
2017-05-29T08:35:39.022Z,490
2017-05-29T08:36:39.362Z,485
2017-05-29T08:37:38.403Z,490
2017-05-29T08:38:39.394Z,500
2017-05-29T08:39:39.073Z,525
2017-05-29T08:40:39.109Z,545
2017-05-29T08:41:38.751Z,565
2017-05-29T08:42:38.754Z,585
2017-05-29T08:43:38.759Z,610
2017-05-29T08:44:39.413Z,625
2017-05-29T08:45:39.110Z,640
2017-05-29T08:46:39.447Z,635
2017-05-29T08:47:39.125Z,635
2017-05-29T08:48:39.467Z,625
2017-05-29T08:49:38.831Z,610
2017-05-29T08:50:39.158Z,595
2017-05-29T08:51:39.147Z,575
2017-05-29T08:52:38.844Z,555
2017-05-29T08:53:39.163Z,540
2017-05-29T08:54:39.492Z,520
2017-05-29T08:55:38.545Z,505
2017-05-29T08:56:38.860Z,490
2017-05-29T08:57:38.881Z,480
2017-05-29T08:58:39.563Z,470
2017-05-29T08:59:39.207Z,460
2017-05-29T09:00:39.577Z,450
2017-05-29T09:01:38.917Z,440
2017-05-29T09:02:39.280Z,425
2017-05-29T09:03:39.238Z,420
2017-05-29T09:04:39.244Z,425
2017-05-29T09:05:38.926Z,420
2017-05-29T09:06:38.937Z,395
2017-05-29T09:07:39.292Z,360
2017-05-29T09:08:39.603Z,335
2017-05-29T09:09:38.638Z,325
2017-05-29T09:10:39.289Z,275
2017-05-29T09:11:39.633Z,260
2017-05-29T09:12:39.302Z,260
2017-05-29T09:13:39.309Z,260
2017-05-29T09:14:39.037Z,265
2017-05-29T09:15:39.644Z,265
2017-05-29T09:16:39.357Z,270
2017-05-29T09:17:39.336Z,265
2017-05-29T09:18:39.017Z,265
2017-05-29T09:19:38.702Z,270
2017-05-29T09:20:38.720Z,265
2017-05-29T09:21:38.717Z,270
2017-05-29T09:22:39.048Z,270
2017-05-29T09:23:39.376Z,270
2017-05-29T09:24:39.383Z,270
2017-05-29T09:25:38.808Z,270
2017-05-29T09:26:39.412Z,270
2017-05-29T09:27:39.417Z,275
2017-05-29T09:28:39.419Z,285
2017-05-29T09:29:39.095Z,295
2017-05-29T09:30:39.430Z,300
2017-05-29T09:31:39.430Z,305
2017-05-29T09:32:39.765Z,305
2017-05-29T09:33:38.792Z,310
2017-05-29T09:34:39.125Z,320
2017-05-29T09:35:39.807Z,335
2017-05-29T09:36:39.795Z,360
2017-05-29T09:37:39.154Z,375
2017-05-29T09:38:39.473Z,395
2017-05-29T09:39:39.804Z,410
2017-05-29T09:40:39.811Z,410
2017-05-29T09:41:39.810Z,435
2017-05-29T09:42:39.497Z,450
2017-05-29T09:43:38.865Z,475
2017-05-29T09:44:39.191Z,505
2017-05-29T09:45:39.532Z,510
2017-05-29T09:46:39.555Z,535
2017-05-29T09:47:39.547Z,580
2017-05-29T09:48:39.299Z,600
2017-05-29T09:49:39.893Z,640
2017-05-29T09:50:39.249Z,645
2017-05-29T09:51:39.570Z,650
2017-05-29T09:52:39.596Z,665
2017-05-29T09:53:39.913Z,660
2017-05-29T09:54:39.597Z,655
2017-05-29T09:55:39.280Z,650
2017-05-29T09:56:38.959Z,635
2017-05-29T09:57:39.617Z,610
2017-05-29T09:58:39.313Z,600
2017-05-29T09:59:39.631Z,580
2017-05-29T10:00:39.942Z,565
2017-05-29T10:01:39.339Z,550
2017-05-29T10:02:39.331Z,535
2017-05-29T10:03:39.391Z,520
2017-05-29T10:04:39.342Z,510
2017-05-29T10:05:39.030Z,505
2017-05-29T10:06:39.360Z,495
2017-05-29T10:07:39.355Z,490
2017-05-29T10:08:39.364Z,470
2017-05-29T10:09:39.369Z,455
2017-05-29T10:10:39.370Z,430
2017-05-29T10:11:39.389Z,415
2017-05-29T10:12:39.391Z,390
2017-05-29T10:13:39.400Z,380
2017-05-29T10:14:39.722Z,360
2017-05-29T10:15:40.123Z,325
2017-05-29T10:16:39.421Z,305
2017-05-29T10:17:40.064Z,295
2017-05-29T10:18:39.743Z,285
2017-05-29T10:19:39.430Z,275
2017-05-29T10:20:39.435Z,275
2017-05-29T10:21:39.442Z,270
2017-05-29T10:22:39.463Z,265
2017-05-29T10:23:39.787Z,260
2017-05-29T10:24:39.465Z,260
2017-05-29T10:25:39.160Z,250
2017-05-29T10:26:40.122Z,245
2017-05-29T10:27:39.497Z,240
2017-05-29T10:28:39.829Z,235
2017-05-29T10:29:39.513Z,230
2017-05-29T10:30:39.817Z,230
2017-05-29T10:31:40.153Z,230
2017-05-29T10:32:40.167Z,230
2017-05-29T10:33:39.874Z,225
2017-05-29T10:34:39.856Z,225
2017-05-29T10:35:39.894Z,225
2017-05-29T10:36:39.890Z,225
2017-05-29T10:37:39.914Z,225
2017-05-29T10:38:39.558Z,220
2017-05-29T10:39:39.597Z,220
2017-05-29T10:40:39.662Z,220
2017-05-29T10:41:39.582Z,220
2017-05-29T10:42:39.898Z,220
2017-05-29T10:43:39.894Z,225
2017-05-29T10:44:40.241Z,225
2017-05-29T10:45:40.229Z,225
2017-05-29T10:46:40.232Z,225
2017-05-29T10:47:39.936Z,230
2017-05-29T10:48:39.647Z,230
2017-05-29T10:49:38.960Z,235
2017-05-29T10:50:39.963Z,235
2017-05-29T10:51:39.941Z,240
2017-05-29T10:52:39.936Z,240
2017-05-29T10:53:40.087Z,240
2017-05-29T10:54:39.978Z,240
2017-05-29T10:55:39.648Z,240
2017-05-29T10:56:39.638Z,235
2017-05-29T10:57:39.006Z,235
2017-05-29T10:58:40.294Z,235
2017-05-29T10:59:39.998Z,235
2017-05-29T11:00:39.672Z,230
2017-05-29T11:01:39.342Z,230
2017-05-29T11:02:40.042Z,230
2017-05-29T11:03:39.365Z,230
2017-05-29T11:04:39.702Z,230
2017-05-29T11:05:39.710Z,225
2017-05-29T11:06:40.032Z,220
2017-05-29T11:07:40.367Z,220
2017-05-29T11:08:40.053Z,220
2017-05-29T11:09:40.373Z,215
2017-05-29T11:10:39.750Z,215
2017-05-29T11:11:40.369Z,215
2017-05-29T11:12:40.379Z,215
2017-05-29T11:13:39.750Z,215
2017-05-29T11:14:39.419Z,215
2017-05-29T11:15:40.092Z,215
2017-05-29T11:16:39.127Z,220
2017-05-29T11:17:40.440Z,220
2017-05-29T11:18:39.771Z,220
2017-05-29T11:19:40.102Z,225
2017-05-29T11:20:40.128Z,235
2017-05-29T11:21:40.499Z,235
2017-05-29T11:22:39.790Z,235
2017-05-29T11:23:39.478Z,235
2017-05-29T11:24:39.799Z,235
2017-05-29T11:25:39.805Z,230
2017-05-29T11:26:39.550Z,230
2017-05-29T11:27:40.143Z,235
2017-05-29T11:28:39.820Z,235
2017-05-29T11:29:40.171Z,245
2017-05-29T11:30:40.550Z,240
2017-05-29T11:31:39.834Z,240
2017-05-29T11:32:39.536Z,245
2017-05-29T11:33:40.173Z,240
2017-05-29T11:34:39.851Z,240
2017-05-29T11:35:39.565Z,240
2017-05-29T11:36:40.546Z,240
2017-05-29T11:37:40.196Z,240
2017-05-29T11:38:40.531Z,235
2017-05-29T11:39:40.233Z,235
2017-05-29T11:40:39.608Z,235
2017-05-29T11:41:40.237Z,240
2017-05-29T11:42:39.906Z,235
2017-05-29T11:43:39.912Z,235
2017-05-29T11:44:39.600Z,235
2017-05-29T11:45:40.274Z,235
2017-05-29T11:46:40.247Z,240
2017-05-29T11:47:40.272Z,245
2017-05-29T11:48:39.942Z,245
2017-05-29T11:49:39.973Z,245
2017-05-29T11:50:40.276Z,245
2017-05-29T11:51:40.296Z,245
2017-05-29T11:52:40.620Z,250
2017-05-29T11:53:40.001Z,250
2017-05-29T11:54:39.681Z,255
2017-05-29T11:55:40.631Z,255
2017-05-29T11:56:40.631Z,255
2017-05-29T11:57:40.000Z,255
2017-05-29T11:58:40.002Z,255
2017-05-29T11:59:40.360Z,260
2017-05-29T12:00:39.696Z,260
2017-05-29T12:01:40.025Z,260
2017-05-29T12:02:40.352Z,260
2017-05-29T12:03:40.375Z,260
2017-05-29T12:04:39.794Z,260
2017-05-29T12:05:40.367Z,260
2017-05-29T12:06:40.382Z,260
2017-05-29T12:07:39.435Z,260
2017-05-29T12:08:40.399Z,260
2017-05-29T12:09:40.081Z,260
2017-05-29T12:10:40.411Z,260
2017-05-29T12:11:40.450Z,260
2017-05-29T12:12:39.764Z,255
2017-05-29T12:13:39.489Z,255
2017-05-29T12:14:40.453Z,255
2017-05-29T12:15:40.136Z,255
2017-05-29T12:16:40.432Z,255
2017-05-29T12:17:40.121Z,255
2017-05-29T12:18:40.448Z,255
2017-05-29T12:19:40.132Z,255
2017-05-29T12:20:40.462Z,250
2017-05-29T12:21:40.165Z,255
2017-05-29T12:22:40.808Z,255
2017-05-29T12:23:40.514Z,255
2017-05-29T12:24:39.851Z,250
2017-05-29T12:25:40.183Z,250
2017-05-29T12:26:40.194Z,240
2017-05-29T12:27:40.544Z,235
2017-05-29T12:28:39.967Z,235
2017-05-29T12:29:40.857Z,230
2017-05-29T12:30:40.548Z,235
2017-05-29T12:31:40.234Z,240
2017-05-29T12:32:40.542Z,240
2017-05-29T12:33:40.554Z,240
2017-05-29T12:34:40.226Z,240
2017-05-29T12:35:39.909Z,240
2017-05-29T12:36:40.233Z,245
2017-05-29T12:37:39.977Z,245
2017-05-29T12:38:40.255Z,245
2017-05-29T12:39:40.916Z,245
2017-05-29T12:40:40.616Z,240
2017-05-29T12:41:40.921Z,240
2017-05-29T12:42:39.630Z,240
2017-05-29T12:43:39.968Z,245
2017-05-29T12:44:40.940Z,245
2017-05-29T12:45:40.618Z,250
2017-05-29T12:46:40.961Z,250
2017-05-29T12:47:40.965Z,250
2017-05-29T12:48:40.641Z,250
2017-05-29T12:49:40.329Z,245
2017-05-29T12:50:40.164Z,245
2017-05-29T12:51:40.668Z,245
2017-05-29T12:52:40.376Z,245
2017-05-29T12:53:40.378Z,245
2017-05-29T12:54:40.722Z,245
2017-05-29T12:55:40.403Z,245
2017-05-29T12:56:41.043Z,250
2017-05-29T12:57:40.371Z,245
2017-05-29T12:58:40.702Z,245
2017-05-29T12:59:40.394Z,235
2017-05-29T13:00:41.048Z,230
2017-05-29T13:01:41.050Z,230
2017-05-29T13:02:40.734Z,225
2017-05-29T13:03:41.198Z,225
2017-05-29T13:04:40.094Z,225
2017-05-29T13:05:40.740Z,225
2017-05-29T13:06:40.821Z,225
2017-05-29T13:07:40.186Z,225
2017-05-29T13:08:41.117Z,220
2017-05-29T13:09:41.094Z,220
2017-05-29T13:10:40.790Z,220
2017-05-29T13:11:40.474Z,215
2017-05-29T13:12:40.784Z,215
2017-05-29T13:13:41.109Z,215
2017-05-29T13:14:40.798Z,215
2017-05-29T13:15:40.508Z,210
2017-05-29T13:16:41.150Z,210
2017-05-29T13:17:40.182Z,205
2017-05-29T13:18:40.499Z,205
2017-05-29T13:19:40.226Z,205
2017-05-29T13:20:40.516Z,205
2017-05-29T13:21:40.838Z,195
2017-05-29T13:22:40.846Z,200
2017-05-29T13:23:40.545Z,200
2017-05-29T13:24:40.557Z,200
2017-05-29T13:25:41.201Z,200
2017-05-29T13:26:40.882Z,200
2017-05-29T13:27:40.596Z,200
2017-05-29T13:28:41.231Z,195
2017-05-29T13:29:40.604Z,195
2017-05-29T13:30:40.601Z,195
2017-05-29T13:31:40.949Z,190
2017-05-29T13:32:41.017Z,195
2017-05-29T13:33:40.565Z,195
2017-05-29T13:34:41.262Z,195
2017-05-29T13:35:41.182Z,195
2017-05-29T13:36:41.363Z,195
2017-05-29T13:37:41.140Z,195
2017-05-29T13:38:40.806Z,200
2017-05-29T13:39:41.502Z,200
2017-05-29T13:40:41.281Z,200
2017-05-29T13:41:41.171Z,200
2017-05-29T13:42:41.202Z,200
2017-05-29T13:43:40.593Z,195
2017-05-29T13:44:41.198Z,195
2017-05-29T13:45:41.137Z,195
2017-05-29T13:46:40.852Z,195
2017-05-29T13:47:41.316Z,205
2017-05-29T13:48:40.197Z,215
2017-05-29T13:49:40.443Z,220
2017-05-29T13:50:40.508Z,240
2017-05-29T13:51:41.558Z,250
2017-05-29T13:52:41.031Z,265
2017-05-29T13:53:41.218Z,265
2017-05-29T13:54:41.282Z,275
2017-05-29T13:55:41.177Z,285
2017-05-29T13:56:40.947Z,290
2017-05-29T13:57:42.304Z,295
2017-05-29T13:58:40.978Z,300
2017-05-29T13:59:41.333Z,310
2017-05-29T14:00:41.716Z,315
2017-05-29T14:01:40.682Z,315